Time;durP1;ratioP1;P1;durP2;ratioP2;P2;SDS_P1;SDS_P2;PMS_P1;PMS_P2;Temp;Humidity;BMP_temperature;BMP_pressure;BME280_temperature;BME280_humidity;BME280_pressure;Samples;Min_cycle;Max_cycle;Signal;HPM_P1;HPM_P2
2021/01/27 00:02:03;;;;;;;5.07;3.60;;;2.00;1.00;;;;;;5053568;28;20153;-75
2021/01/27 00:04:29;;;;;;;6.07;3.47;;;;;;;;;;5053412;28;20170;-75
2021/01/27 00:06:55;;;;;;;6.47;3.20;;;2.00;1.00;;;;;;5053609;28;20164;-74
2021/01/27 00:09:21;;;;;;;10.27;4.17;;;;;;;;;;5053388;28;20529;-75
2021/01/27 00:11:47;;;;;;;3.77;3.00;;;;;;;;;;5053301;28;20188;-75
2021/01/27 00:14:13;;;;;;;2.60;2.40;;;;;;;;;;5053243;28;20897;-74
2021/01/27 00:16:38;;;;;;;5.73;3.40;;;2.00;1.00;;;;;;5053167;28;20422;-74
2021/01/27 00:19:04;;;;;;;7.20;2.90;;;;;;;;;;5053173;28;20743;-74
2021/01/27 00:21:30;;;;;;;3.97;2.80;;;2.00;1.00;;;;;;5053497;28;20583;-74
2021/01/27 00:23:56;;;;;;;4.30;3.30;;;;;;;;;;5052884;28;20207;-74
2021/01/27 00:26:22;;;;;;;6.90;3.00;;;;;;;;;;5060562;28;20190;-74
2021/01/27 00:28:48;;;;;;;6.70;4.43;;;1.90;1.00;;;;;;5067579;28;20183;-74
2021/01/27 00:31:14;;;;;;;5.20;3.10;;;;;;;;;;5067438;28;20491;-74
2021/01/27 00:33:39;;;;;;;4.10;2.92;;;1.90;1.00;;;;;;5071872;28;20156;-74
2021/01/27 00:36:05;;;;;;;5.30;3.37;;;1.90;1.00;;;;;;5071758;28;20206;-74
2021/01/27 00:38:31;;;;;;;9.67;4.03;;;1.90;1.00;;;;;;5058399;28;20175;-74
2021/01/27 00:40:58;;;;;;;9.93;4.17;;;1.90;1.00;;;;;;5053003;28;20563;-75
2021/01/27 00:43:27;;;;;;;4.13;3.42;;;1.80;1.00;;;;;;5072534;28;20212;-75
2021/01/27 00:45:53;;;;;;;6.90;3.38;;;1.80;1.00;;;;;;5072637;28;20192;-75
2021/01/27 00:48:19;;;;;;;6.03;3.07;;;;;;;;;;5061304;28;20528;-75
2021/01/27 00:50:46;;;;;;;6.13;2.78;;;1.70;1.00;;;;;;5053105;28;20446;-74
2021/01/27 00:53:12;;;;;;;7.32;4.05;;;1.70;1.00;;;;;;5052528;28;20192;-74
2021/01/27 00:55:38;;;;;;;7.00;3.55;;;1.70;1.00;;;;;;5056639;28;20183;-74
2021/01/27 00:58:04;;;;;;;5.60;3.60;;;;;;;;;;5052290;28;20234;-74
2021/01/27 01:00:33;;;;;;;5.13;3.85;;;1.60;1.00;;;;;;5052429;28;20618;-74
2021/01/27 01:02:59;;;;;;;10.02;4.15;;;1.60;1.00;;;;;;5052484;28;20172;-74
2021/01/27 01:05:33;;;;;;;18.63;5.10;;;1.60;1.00;;;;;;5052561;28;20569;-74
2021/01/27 01:07:59;;;;;;;5.22;3.53;;;1.60;1.00;;;;;;5052802;28;20611;-74
2021/01/27 01:10:36;;;;;;;5.75;2.90;;;1.60;1.00;;;;;;5052462;28;20211;-74
2021/01/27 01:13:03;;;;;;;5.97;3.65;;;1.60;1.00;;;;;;5052639;28;20387;-74
2021/01/27 01:15:29;;;;;;;9.10;3.95;;;1.60;1.00;;;;;;5067980;28;20182;-75
2021/01/27 01:17:56;;;;;;;4.40;2.85;;;1.60;1.00;;;;;;5052536;28;20645;-75
2021/01/27 01:20:22;;;;;;;6.65;4.07;;;1.60;1.00;;;;;;5052578;28;20218;-75
2021/01/27 01:22:55;;;;;;;5.88;3.00;;;1.60;1.00;;;;;;5052936;28;20152;-74
2021/01/27 01:25:23;;;;;;;3.67;2.85;;;1.70;1.00;;;;;;5051820;28;20170;-74
2021/01/27 01:27:49;;;;;;;8.88;4.00;;;1.70;1.00;;;;;;5071465;28;20189;-74
2021/01/27 01:30:32;;;;;;;5.70;3.20;;;1.70;1.00;;;;;;5072171;28;20290;-74
2021/01/27 01:33:05;;;;;;;4.57;3.50;;;1.70;1.00;;;;;;5072521;28;20162;-74
2021/01/27 01:35:31;;;;;;;7.68;4.13;;;1.70;1.00;;;;;;5070344;28;20274;-74
2021/01/27 01:37:57;;;;;;;7.13;3.33;;;;;;;;;;5069497;28;20255;-74
2021/01/27 01:40:30;;;;;;;4.82;3.53;;;1.70;1.00;;;;;;5052084;28;20199;-74
2021/01/27 01:43:06;;;;;;;6.35;3.47;;;1.70;1.00;;;;;;5052364;28;20218;-74
2021/01/27 01:45:57;;;;;;;8.25;2.97;;;1.60;1.00;;;;;;5051949;28;20210;-74
2021/01/27 01:49:03;;;;;;;5.25;2.95;;;1.70;1.00;;;;;;5052252;28;20181;-74
2021/01/27 01:51:47;;;;;;;5.10;3.53;;;1.70;1.00;;;;;;4991167;28;20201;-74
2021/01/27 01:54:37;;;;;;;3.95;2.72;;;1.70;1.00;;;;;;4987082;28;20665;-75
2021/01/27 01:57:10;;;;;;;3.28;2.90;;;1.60;1.00;;;;;;5008724;28;20189;-75
2021/01/27 01:59:38;;;;;;;6.85;3.15;;;1.80;1.00;;;;;;5008563;28;20652;-75
2021/01/27 02:02:09;;;;;;;5.40;3.28;;;1.70;1.00;;;;;;5010015;28;20193;-75
2021/01/27 02:05:06;;;;;;;3.83;2.78;;;1.60;1.00;;;;;;5012518;28;20243;-75
2021/01/27 02:07:33;;;;;;;10.20;3.30;;;;;;;;;;4955653;29;20634;-75
2021/01/27 02:09:58;;;;;;;5.50;3.40;;;1.70;1.00;;;;;;4955307;29;20215;-75
2021/01/27 02:12:49;;;;;;;4.53;2.70;;;1.70;1.00;;;;;;4955417;29;20278;-75
2021/01/27 02:15:33;;;;;;;3.08;2.53;;;1.70;1.00;;;;;;4954894;29;20195;-75
2021/01/27 02:18:20;;;;;;;4.30;2.75;;;1.70;1.00;;;;;;4955184;29;20179;-75
2021/01/27 02:21:23;;;;;;;3.30;3.00;;;1.70;1.00;;;;;;4955207;29;20246;-75
2021/01/27 02:24:07;;;;;;;6.28;3.17;;;1.80;1.00;;;;;;5033243;28;20188;-75
2021/01/27 02:27:06;;;;;;;3.30;3.00;;;1.70;1.00;;;;;;5020839;28;20185;-75
2021/01/27 02:30:03;;;;;;;2.53;2.33;;;1.80;1.00;;;;;;5029351;28;20207;-75
2021/01/27 02:32:50;;;;;;;3.80;3.20;;;1.80;1.00;;;;;;4993763;28;20182;-75
2021/01/27 02:35:42;;;;;;;4.30;3.10;;;1.80;1.00;;;;;;4993503;28;20181;-74
2021/01/27 02:38:26;;;;;;;4.57;2.58;;;1.80;1.00;;;;;;4992170;28;20197;-75
2021/01/27 02:41:02;;;;;;;2.78;2.20;;;1.80;1.00;;;;;;4993642;28;20188;-75
2021/01/27 02:43:40;;;;;;;2.53;2.35;;;1.80;1.00;;;;;;4987016;28;20197;-75
2021/01/27 02:46:16;;;;;;;10.15;2.92;;;1.90;1.00;;;;;;4976289;28;20302;-75
2021/01/27 02:48:53;;;;;;;7.45;2.95;;;1.90;1.00;;;;;;4973617;28;20224;-75
2021/01/27 02:51:26;;;;;;;4.25;2.38;;;1.90;1.00;;;;;;4973635;28;20296;-75
2021/01/27 02:53:59;;;;;;;7.25;2.13;;;1.90;1.00;;;;;;4974007;28;20167;-75
2021/01/27 02:56:33;;;;;;;5.40;2.92;;;1.80;1.00;;;;;;4991707;28;20221;-75
2021/01/27 02:59:14;;;;;;;6.55;2.30;;;1.80;1.00;;;;;;4993235;28;20216;-75
2021/01/27 03:01:47;;;;;;;3.45;1.77;;;1.80;1.00;;;;;;4993262;28;20300;-75
2021/01/27 03:04:20;;;;;;;3.00;2.25;;;1.80;1.00;;;;;;4992685;28;20181;-74
2021/01/27 03:06:47;;;;;;;4.35;2.45;;;1.80;1.00;;;;;;4974072;28;20607;-74
2021/01/27 03:09:19;;;;;;;3.65;2.45;;;1.90;1.00;;;;;;5005597;28;20638;-75
2021/01/27 03:11:45;;;;;;;7.20;2.50;;;1.90;1.00;;;;;;5054810;28;20231;-75
2021/01/27 03:14:11;;;;;;;3.80;2.80;;;;;;;;;;5054344;28;20599;-75
2021/01/27 03:16:54;;;;;;;5.82;3.47;;;1.90;1.00;;;;;;5054445;28;20543;-75
2021/01/27 03:19:25;;;;;;;14.52;1.92;;;1.90;1.00;;;;;;5054434;28;20156;-75
2021/01/27 03:21:56;;;;;;;4.32;2.25;;;2.00;1.00;;;;;;5055045;28;20637;-74
2021/01/27 03:24:23;;;;;;;4.68;2.75;;;2.00;1.00;;;;;;5054217;28;20168;-75
2021/01/27 03:26:58;;;;;;;2.47;2.28;;;2.00;1.00;;;;;;5063441;28;20673;-75
2021/01/27 03:29:26;;;;;;;2.88;2.33;;;1.90;1.00;;;;;;5074014;28;20578;-76
2021/01/27 03:31:55;;;;;;;3.25;2.30;;;1.90;1.00;;;;;;5069598;28;20236;-76
2021/01/27 03:34:29;;;;;;;4.13;2.45;;;1.90;1.00;;;;;;5056449;28;20156;-76
2021/01/27 03:37:11;;;;;;;3.30;2.88;;;1.80;1.00;;;;;;5073573;28;20167;-75
2021/01/27 03:39:41;;;;;;;4.07;2.25;;;1.90;1.00;;;;;;5073499;28;20218;-74
2021/01/27 03:42:14;;;;;;;4.18;2.40;;;1.90;1.00;;;;;;5071589;28;20633;-74
2021/01/27 03:44:45;;;;;;;3.90;2.50;;;1.80;1.00;;;;;;5052275;28;20175;-74
2021/01/27 03:47:21;;;;;;;5.78;2.30;;;1.90;1.00;;;;;;5053833;28;20430;-74
2021/01/27 03:49:52;;;;;;;3.63;1.85;;;1.80;1.00;;;;;;5053825;28;20159;-74
2021/01/27 03:52:51;;;;;;;3.50;2.60;;;1.80;1.00;;;;;;5053948;28;20171;-74
2021/01/27 03:55:34;;;;;;;3.38;2.85;;;1.70;1.00;;;;;;5062680;28;20163;-75
2021/01/27 03:58:24;;;;;;;2.17;1.65;;;1.70;1.00;;;;;;5073597;28;20169;-75
2021/01/27 04:00:50;;;;;;;2.90;2.05;;;1.70;1.00;;;;;;5073557;28;20170;-75
2021/01/27 04:03:18;;;;;;;3.67;2.08;;;1.70;1.00;;;;;;5062477;28;20189;-75
2021/01/27 04:05:43;;;;;;;1.90;1.80;;;1.70;1.00;;;;;;5053429;28;20578;-75
2021/01/27 04:08:10;;;;;;;2.10;1.80;;;;;;;;;;5066502;28;20210;-75
2021/01/27 04:10:36;;;;;;;1.95;1.73;;;1.70;1.00;;;;;;5073288;28;20981;-75
2021/01/27 04:13:02;;;;;;;4.07;2.70;;;1.60;1.00;;;;;;5065713;28;20263;-75
2021/01/27 04:15:30;;;;;;;3.47;2.22;;;1.60;1.00;;;;;;5052099;28;20168;-75
2021/01/27 04:17:56;;;;;;;6.32;2.70;;;1.60;1.00;;;;;;5053239;28;20523;-75
2021/01/27 04:20:22;;;;;;;3.42;2.10;;;1.50;1.00;;;;;;5053461;28;20631;-75
2021/01/27 04:22:48;;;;;;;5.65;2.70;;;1.60;1.00;;;;;;5053341;28;20176;-74
2021/01/27 04:25:14;;;;;;;2.53;2.33;;;;;;;;;;5053119;28;20164;-75
2021/01/27 04:27:41;;;;;;;3.70;1.92;;;;;;;;;;5061313;28;20434;-75
2021/01/27 04:30:09;;;;;;;6.60;3.03;;;1.60;1.00;;;;;;5070818;28;20195;-75
2021/01/27 04:32:34;;;;;;;4.28;2.30;;;1.60;1.00;;;;;;5072553;28;20171;-75
2021/01/27 04:35:00;;;;;;;2.77;2.57;;;;;;;;;;5061978;28;20641;-75
2021/01/27 04:37:26;;;;;;;2.25;1.75;;;;;;;;;;5066010;28;20179;-74
2021/01/27 04:39:52;;;;;;;2.35;2.10;;;;;;;;;;5051457;28;20211;-74
2021/01/27 04:42:24;;;;;;;3.10;2.57;;;1.60;1.00;;;;;;5052949;28;20172;-74
2021/01/27 04:44:51;;;;;;;6.00;3.00;;;1.60;1.00;;;;;;5052831;28;20768;-74
2021/01/27 04:47:30;;;;;;;3.20;2.78;;;1.60;1.00;;;;;;5052883;28;20767;-74
2021/01/27 04:50:04;;;;;;;5.75;1.98;;;1.60;1.00;;;;;;5052824;28;20188;-75
2021/01/27 04:52:33;;;;;;;1.95;1.85;;;;;;;;;;5052873;28;20661;-75
2021/01/27 04:54:59;;;;;;;2.08;1.80;;;1.60;1.00;;;;;;5053034;28;20225;-74
2021/01/27 04:57:43;;;;;;;8.57;2.60;;;1.60;1.00;;;;;;5052778;28;20156;-74
2021/01/27 05:00:12;;;;;;;4.63;1.92;;;1.60;1.00;;;;;;5052824;28;20618;-76
2021/01/27 05:03:03;;;;;;;2.90;2.00;;;1.60;1.00;;;;;;5072505;28;20178;-73
2021/01/27 05:05:38;;;;;;;2.50;2.25;;;1.70;1.00;;;;;;5072750;28;20159;-74
2021/01/27 05:08:12;;;;;;;2.47;1.98;;;1.70;1.00;;;;;;5071699;28;20178;-82
2021/01/27 05:10:38;;;;;;;25.27;2.40;;;1.70;1.00;;;;;;5070135;28;20199;-83
2021/01/27 05:13:40;;;;;;;4.40;2.60;;;1.60;1.00;;;;;;5051562;28;20225;-82
2021/01/27 05:16:19;;;;;;;3.40;2.63;;;1.60;1.00;;;;;;5001522;28;20198;-82
2021/01/27 05:18:45;;;;;;;1.67;1.58;;;1.60;1.00;;;;;;4991310;28;20308;-77
2021/01/27 05:21:33;;;;;;;8.02;2.25;;;1.60;1.00;;;;;;4991184;28;20177;-76
2021/01/27 05:23:59;;;;;;;3.53;2.40;;;1.60;1.00;;;;;;4991424;28;20577;-75
2021/01/27 05:26:35;;;;;;;5.63;2.50;;;1.60;1.00;;;;;;4995346;28;20271;-75
2021/01/27 05:29:04;;;;;;;6.22;2.15;;;1.60;1.00;;;;;;5007569;28;20224;-75
2021/01/27 05:31:57;;;;;;;3.35;2.08;;;1.60;1.00;;;;;;5010479;28;20267;-75
2021/01/27 05:34:35;;;;;;;4.82;2.63;;;1.60;1.00;;;;;;4993069;28;20174;-75
2021/01/27 05:37:06;;;;;;;5.10;2.35;;;1.60;1.00;;;;;;5003141;28;20186;-75
2021/01/27 05:39:32;;;;;;;3.85;2.70;;;1.70;1.00;;;;;;4993205;28;20208;-75
2021/01/27 05:42:06;;;;;;;2.83;1.93;;;1.60;1.00;;;;;;4994773;28;20174;-75
2021/01/27 05:44:32;;;;;;;4.30;2.30;;;;;;;;;;5010182;28;20457;-76
2021/01/27 05:47:18;;;;;;;2.95;1.60;;;1.70;1.00;;;;;;5012567;28;20177;-75
2021/01/27 05:49:44;;;;;;;3.65;1.90;;;1.70;1.00;;;;;;5014202;28;20528;-75
2021/01/27 05:52:15;;;;;;;2.10;1.90;;;1.80;1.00;;;;;;5057557;28;20171;-75
2021/01/27 05:54:41;;;;;;;2.83;2.13;;;1.80;1.00;;;;;;5076249;28;20170;-74
2021/01/27 05:57:19;;;;;;;2.30;1.77;;;1.90;1.00;;;;;;5076056;28;20226;-74
2021/01/27 05:59:47;;;;;;;1.77;1.55;;;1.90;1.00;;;;;;5074856;28;20159;-74
2021/01/27 06:02:14;;;;;;;7.22;2.28;;;1.90;1.00;;;;;;5075413;28;20194;-74
2021/01/27 06:04:40;;;;;;;4.35;2.53;;;2.00;1.00;;;;;;5075911;28;20165;-74
2021/01/27 06:07:26;;;;;;;3.80;1.75;;;2.10;1.00;;;;;;5075754;28;20160;-74
2021/01/27 06:09:55;;;;;;;3.75;2.03;;;2.10;1.00;;;;;;5076027;28;20213;-76
2021/01/27 06:12:21;;;;;;;4.95;2.20;;;2.10;1.00;;;;;;5056680;28;20174;-75
2021/01/27 06:14:47;;;;;;;7.53;2.60;;;;;;;;;;5054423;28;20156;-75
2021/01/27 06:17:23;;;;;;;2.60;1.93;;;2.20;1.00;;;;;;5055148;28;20167;-76
2021/01/27 06:20:15;;;;;;;3.03;2.70;;;2.20;1.00;;;;;;5059399;28;20430;-75
2021/01/27 06:23:02;;;;;;;10.15;2.38;;;2.30;1.00;;;;;;5006515;28;20181;-75
2021/01/27 06:25:37;;;;;;;2.63;1.75;;;2.20;1.00;;;;;;4974178;28;20249;-75
2021/01/27 06:28:43;;;;;;;2.50;2.00;;;2.20;1.00;;;;;;4986170;28;20198;-75
2021/01/27 06:31:27;;;;;;;2.33;1.40;;;2.20;1.00;;;;;;4911125;29;20310;-75
2021/01/27 06:34:07;;;;;;;2.72;1.85;;;2.20;1.00;;;;;;4925309;29;20191;-75
2021/01/27 06:36:40;;;;;;;4.03;2.20;;;2.20;1.00;;;;;;4917045;29;20187;-75
2021/01/27 06:39:36;;;;;;;11.00;4.22;;;2.30;1.00;;;;;;4898434;29;20672;-74
2021/01/27 06:42:51;;;;;;;7.05;2.85;;;2.30;1.00;;;;;;4909541;29;20257;-74
2021/01/27 06:45:47;;;;;;;4.57;2.00;;;2.30;1.00;;;;;;4915555;29;20526;-74
2021/01/27 06:48:48;;;;;;;5.85;2.63;;;2.30;1.00;;;;;;4913202;29;20192;-74
2021/01/27 06:51:20;;;;;;;3.03;2.40;;;2.30;1.00;;;;;;4859047;29;20210;-74
2021/01/27 06:54:00;;;;;;;3.20;1.90;;;2.40;1.00;;;;;;4860175;29;20244;-74
2021/01/27 06:56:40;;;;;;;4.50;2.30;;;2.40;1.00;;;;;;4860048;29;20631;-74
2021/01/27 06:59:33;;;;;;;7.03;2.25;;;2.40;1.00;;;;;;4878037;29;20267;-74
2021/01/27 07:02:01;;;;;;;4.93;2.03;;;2.40;1.00;;;;;;4899844;29;20295;-74
2021/01/27 07:04:35;;;;;;;5.20;2.33;;;2.40;1.00;;;;;;4926148;29;20263;-74
2021/01/27 07:07:40;;;;;;;12.95;2.90;;;2.40;1.00;;;;;;4926384;28;20188;-74
2021/01/27 07:10:11;;;;;;;4.85;2.17;;;2.30;1.00;;;;;;5012848;28;20646;-75
2021/01/27 07:12:37;;;;;;;5.30;2.20;;;;;;;;;;5012603;28;20460;-75
2021/01/27 07:15:14;;;;;;;11.00;2.13;;;2.40;1.00;;;;;;5012222;28;20264;-75
2021/01/27 07:17:55;;;;;;;2.50;2.30;;;2.50;1.00;;;;;;5012503;28;20954;-75
2021/01/27 07:20:42;;;;;;;12.82;2.90;;;2.50;1.00;;;;;;4996579;28;20204;-75
2021/01/27 07:23:29;;;;;;;4.90;3.10;;;2.50;1.00;;;;;;4973490;28;20250;-75
2021/01/27 07:25:55;;;;;;;9.68;2.67;;;;;;;;;;5036931;28;20708;-75
2021/01/27 07:28:50;;;;;;;6.83;2.73;;;2.50;1.00;;;;;;5077035;28;20190;-75
2021/01/27 07:31:27;;;;;;;3.10;2.05;;;2.40;1.00;;;;;;5071101;28;20461;-75
2021/01/27 07:34:01;;;;;;;5.38;2.60;;;2.40;1.00;;;;;;5057342;28;20164;-76
2021/01/27 07:36:53;;;;;;;1.95;1.73;;;2.50;1.00;;;;;;5056184;28;20182;-75
2021/01/27 07:39:39;;;;;;;3.05;1.95;;;2.50;1.00;;;;;;5055484;28;20234;-74
2021/01/27 07:42:20;;;;;;;5.47;3.10;;;2.50;1.00;;;;;;5053824;28;20518;-75
2021/01/27 07:44:55;;;;;;;3.72;2.88;;;2.60;1.00;;;;;;5069060;28;20259;-75
2021/01/27 07:50:34;;;;;;;2.78;2.00;;;2.60;1.00;;;;;;5072736;28;20241;-75
2021/01/27 07:53:27;;;;;;;6.25;2.60;;;;;;;;;;5053665;28;20615;-75
2021/01/27 07:56:17;;;;;;;8.02;2.33;;;2.60;1.00;;;;;;5062474;28;20642;-75
2021/01/27 07:59:16;;;;;;;5.75;2.60;;;2.60;1.00;;;;;;5066608;28;20213;-75
2021/01/27 08:01:46;;;;;;;2.35;2.05;;;2.60;1.00;;;;;;5068873;28;20772;-75
2021/01/27 08:04:26;;;;;;;2.50;2.03;;;2.70;1.00;;;;;;5073395;28;20337;-75
2021/01/27 08:06:54;;;;;;;6.03;2.90;;;2.70;1.00;;;;;;5071451;28;20191;-75
2021/01/27 08:09:36;;;;;;;5.57;2.45;;;2.70;1.00;;;;;;5073182;28;20221;-76
2021/01/27 08:12:26;;;;;;;6.80;2.90;;;2.70;1.00;;;;;;5068958;28;20455;-75
2021/01/27 08:14:59;;;;;;;3.40;2.60;;;2.70;1.00;;;;;;5072232;28;20167;-75
2021/01/27 08:17:55;;;;;;;8.27;2.92;;;2.80;1.00;;;;;;5073141;28;20194;-75
2021/01/27 08:20:33;;;;;;;5.47;2.00;;;2.80;1.00;;;;;;5073214;28;20159;-75
2021/01/27 08:23:05;;;;;;;4.75;2.95;;;2.80;1.00;;;;;;5073317;28;20159;-75
2021/01/27 08:25:53;;;;;;;4.10;3.10;;;2.70;1.00;;;;;;5073446;28;20151;-75
2021/01/27 08:28:37;;;;;;;3.70;2.22;;;2.80;1.00;;;;;;5073318;28;20186;-75
2021/01/27 08:31:18;;;;;;;10.80;3.05;;;2.80;1.00;;;;;;5073049;28;20657;-75
2021/01/27 08:33:46;;;;;;;4.30;2.80;;;2.80;1.00;;;;;;5073205;28;20155;-75
2021/01/27 08:36:33;;;;;;;5.05;3.10;;;2.70;1.00;;;;;;5073061;28;20503;-75
2021/01/27 08:38:59;;;;;;;4.68;2.50;;;2.80;1.00;;;;;;5068132;28;20226;-75
2021/01/27 08:41:43;;;;;;;20.50;3.07;;;2.80;1.00;;;;;;5053299;28;20198;-74
2021/01/27 08:44:23;;;;;;;7.60;2.70;;;2.80;1.00;;;;;;5052600;28;20167;-74
2021/01/27 08:47:00;;;;;;;2.65;2.15;;;2.70;1.00;;;;;;5052818;28;20164;-74
2021/01/27 08:50:13;;;;;;;6.70;3.30;;;2.80;1.00;;;;;;5052702;28;20205;-74
2021/01/27 08:52:41;;;;;;;3.38;1.75;;;2.80;1.00;;;;;;5030806;28;20165;-74
2021/01/27 08:55:34;;;;;;;3.53;2.25;;;2.80;1.00;;;;;;5030899;28;20211;-75
2021/01/27 08:58:23;;;;;;;1.98;1.85;;;2.80;1.00;;;;;;5050275;28;20179;-75
2021/01/27 09:00:50;;;;;;;5.50;2.88;;;2.80;1.00;;;;;;5050411;28;20233;-75
2021/01/27 09:03:37;;;;;;;3.90;1.80;;;2.80;1.00;;;;;;5050612;28;20254;-75
2021/01/27 09:06:20;;;;;;;6.00;2.08;;;2.90;1.00;;;;;;5050437;28;20724;-75
2021/01/27 09:08:46;;;;;;;2.55;1.90;;;2.90;1.00;;;;;;5050507;28;20526;-75
2021/01/27 09:11:12;;;;;;;3.78;2.85;;;;;;;;;;5050761;28;20206;-74
2021/01/27 09:13:44;;;;;;;3.80;2.30;;;2.90;1.00;;;;;;5052950;28;20196;-74
2021/01/27 09:16:23;;;;;;;4.95;2.70;;;3.00;1.00;;;;;;5054341;28;20167;-74
2021/01/27 09:19:02;;;;;;;15.60;3.05;;;3.00;1.00;;;;;;5054367;28;20164;-74
2021/01/27 09:21:29;;;;;;;3.67;2.33;;;;;;;;;;5054433;28;20201;-75
2021/01/27 09:24:07;;;;;;;5.05;3.17;;;3.00;1.00;;;;;;5054110;28;20246;-75
2021/01/27 09:26:38;;;;;;;4.72;3.42;;;3.10;1.00;;;;;;5044403;28;20647;-75
2021/01/27 09:29:08;;;;;;;2.97;2.50;;;3.00;1.00;;;;;;5056564;28;20642;-75
2021/01/27 09:31:34;;;;;;;5.60;2.15;;;;;;;;;;5056375;28;20188;-75
2021/01/27 09:34:23;;;;;;;12.03;3.50;;;2.90;1.00;;;;;;5056266;28;20156;-75
2021/01/27 09:36:59;;;;;;;4.35;3.08;;;2.90;1.00;;;;;;5056397;28;20395;-75
2021/01/27 09:39:34;;;;;;;3.85;2.47;;;2.90;1.00;;;;;;5058768;28;20191;-75
2021/01/27 09:42:13;;;;;;;4.90;3.10;;;2.80;1.00;;;;;;5071725;28;20540;-76
2021/01/27 09:44:39;;;;;;;3.05;2.35;;;;;;;;;;5055766;28;20160;-75
2021/01/27 09:47:11;;;;;;;3.80;3.10;;;2.70;1.00;;;;;;5056121;28;20163;-75
2021/01/27 09:49:42;;;;;;;6.85;2.80;;;2.70;1.00;;;;;;5060014;28;20642;-75
2021/01/27 09:52:11;;;;;;;4.13;2.85;;;2.80;1.00;;;;;;5075754;28;20193;-75
2021/01/27 09:54:41;;;;;;;4.38;3.00;;;2.70;1.00;;;;;;5074540;28;20163;-75
2021/01/27 09:57:10;;;;;;;4.40;2.70;;;2.80;1.00;;;;;;5065389;28;20542;-75
2021/01/27 09:59:36;;;;;;;4.70;3.33;;;2.70;1.00;;;;;;5073782;28;20249;-75
2021/01/27 10:02:02;;;;;;;7.40;4.13;;;;;;;;;;5075819;28;20591;-75
2021/01/27 10:04:36;;;;;;;8.07;2.42;;;2.80;1.00;;;;;;5075636;28;20413;-75
2021/01/27 10:07:14;;;;;;;3.42;2.83;;;2.80;1.00;;;;;;5075801;28;20213;-75
2021/01/27 10:09:52;;;;;;;5.70;2.40;;;2.90;1.00;;;;;;5075640;28;20648;-75
2021/01/27 10:12:29;;;;;;;3.65;2.17;;;2.90;1.00;;;;;;5070714;28;20179;-74
2021/01/27 10:15:09;;;;;;;3.83;2.10;;;3.00;1.00;;;;;;5055664;28;20159;-74
2021/01/27 10:17:36;;;;;;;5.03;2.60;;;3.10;1.00;;;;;;5055367;28;20156;-74
2021/01/27 10:20:03;;;;;;;7.28;2.45;;;;;;;;;;5055543;28;20164;-74
2021/01/27 10:22:34;;;;;;;3.70;2.28;;;3.20;1.00;;;;;;5055664;28;20553;-74
2021/01/27 10:25:03;;;;;;;2.58;2.20;;;3.30;1.00;;;;;;5072791;28;20168;-74
2021/01/27 10:27:34;;;;;;;5.60;3.20;;;3.30;1.00;;;;;;5071134;28;20194;-75
2021/01/27 10:30:04;;;;;;;4.82;2.55;;;3.30;1.00;;;;;;5054051;28;20221;-75
2021/01/27 10:32:35;;;;;;;3.85;1.90;;;3.40;1.00;;;;;;5054858;28;20670;-75
2021/01/27 10:35:23;;;;;;;4.03;2.20;;;3.40;1.00;;;;;;5070625;28;20544;-75
2021/01/27 10:38:01;;;;;;;3.58;1.95;;;3.40;1.00;;;;;;5063550;28;20176;-75
2021/01/27 10:40:29;;;;;;;4.00;1.80;;;3.30;1.00;;;;;;5054534;28;20446;-75
2021/01/27 10:42:58;;;;;;;2.42;2.00;;;3.30;1.00;;;;;;5075169;28;20214;-74
2021/01/27 10:45:26;;;;;;;3.30;2.30;;;3.30;1.00;;;;;;5074787;28;20159;-74
2021/01/27 10:48:04;;;;;;;2.47;1.63;;;3.20;1.00;;;;;;5057977;28;20176;-74
2021/01/27 10:50:31;;;;;;;2.22;1.95;;;;;;;;;;5054708;28;20204;-74
2021/01/27 10:52:57;;;;;;;3.03;1.73;;;3.20;1.00;;;;;;5073579;28;20636;-74
2021/01/27 10:55:37;;;;;;;6.22;2.78;;;3.00;1.00;;;;;;5073821;28;20163;-74
2021/01/27 10:58:08;;;;;;;3.78;1.98;;;3.10;1.00;;;;;;5073769;28;20185;-75
2021/01/27 11:00:35;;;;;;;4.28;2.80;;;3.20;1.00;;;;;;5064478;28;20653;-75
2021/01/27 11:03:01;;;;;;;2.53;2.15;;;;;;;;;;5056278;28;20176;-76
2021/01/27 11:05:27;;;;;;;5.85;2.53;;;3.10;1.00;;;;;;5060032;28;20700;-75
2021/01/27 11:07:53;;;;;;;3.22;2.40;;;;;;;;;;5054541;28;20203;-75
2021/01/27 11:10:24;;;;;;;6.55;3.05;;;3.10;1.00;;;;;;5054340;28;20225;-75
2021/01/27 11:12:50;;;;;;;2.28;1.77;;;3.20;1.00;;;;;;5064369;28;20675;-74
2021/01/27 11:15:16;;;;;;;5.18;2.85;;;3.20;1.00;;;;;;5062435;28;20646;-74
2021/01/27 11:17:43;;;;;;;7.97;3.83;;;;;;;;;;5059671;28;20270;-75
2021/01/27 11:20:09;;;;;;;14.02;5.07;;;3.20;1.00;;;;;;5060213;28;20201;-74
2021/01/27 11:22:35;;;;;;;8.98;2.47;;;;;;;;;;5074716;28;20183;-75
2021/01/27 11:25:01;;;;;;;2.08;1.98;;;3.30;1.00;;;;;;5089740;28;20269;-76
2021/01/27 11:27:30;;;;;;;4.40;3.27;;;3.30;1.00;;;;;;5073160;28;20203;-75
2021/01/27 11:29:56;;;;;;;1.85;1.63;;;;;;;;;;5073958;28;20265;-76
2021/01/27 11:32:22;;;;;;;3.40;2.57;;;;;;;;;;5073935;28;20606;-76
2021/01/27 11:34:54;;;;;;;2.35;2.05;;;3.00;1.00;;;;;;5070349;28;20943;-75
2021/01/27 11:37:20;;;;;;;5.43;2.78;;;3.10;1.00;;;;;;5070022;28;20198;-75
2021/01/27 11:39:46;;;;;;;4.40;2.90;;;3.10;1.00;;;;;;5064418;28;20603;-74
2021/01/27 11:42:18;;;;;;;3.10;2.40;;;3.00;1.00;;;;;;5063878;28;20674;-74
2021/01/27 11:45:00;;;;;;;2.47;2.28;;;3.10;1.00;;;;;;5054001;28;20488;-74
2021/01/27 11:47:30;;;;;;;3.53;2.00;;;3.00;1.00;;;;;;5054755;28;20168;-74
2021/01/27 11:50:00;;;;;;;2.67;2.28;;;3.10;1.00;;;;;;5054326;28;20171;-74
2021/01/27 11:52:26;;;;;;;4.22;3.13;;;3.00;1.00;;;;;;5054416;28;20160;-74
2021/01/27 11:54:52;;;;;;;3.00;2.53;;;2.90;1.00;;;;;;5069046;28;20166;-74
2021/01/27 11:57:19;;;;;;;5.10;2.70;;;2.90;1.00;;;;;;5074494;28;20481;-74
2021/01/27 11:59:45;;;;;;;4.68;3.20;;;3.00;1.00;;;;;;5074470;28;20385;-74
2021/01/27 12:02:13;;;;;;;4.70;2.88;;;;;;;;;;5074200;28;20177;-76
2021/01/27 12:04:54;;;;;;;4.47;2.63;;;3.00;1.00;;;;;;5074254;28;20167;-74
2021/01/27 12:07:24;;;;;;;5.22;2.70;;;3.10;1.00;;;;;;5073881;28;20183;-74
2021/01/27 12:10:00;;;;;;;6.05;3.28;;;3.10;1.00;;;;;;5073840;28;20626;-75
2021/01/27 12:12:30;;;;;;;4.70;3.25;;;3.10;1.00;;;;;;5089922;28;20269;-76
2021/01/27 12:15:18;;;;;;;4.30;2.45;;;3.00;1.00;;;;;;5073861;28;20159;-75
2021/01/27 12:17:50;;;;;;;3.72;1.55;;;3.10;1.00;;;;;;5074687;28;20179;-76
2021/01/27 12:20:19;;;;;;;4.03;3.05;;;3.00;1.00;;;;;;5068331;28;20262;-75
2021/01/27 12:22:54;;;;;;;5.65;3.60;;;3.00;1.00;;;;;;5073537;28;20657;-75
2021/01/27 12:25:20;;;;;;;5.50;3.60;;;3.00;1.00;;;;;;5066803;28;20189;-76
2021/01/27 12:27:46;;;;;;;5.37;2.77;;;3.00;1.00;;;;;;5055832;28;20187;-74
2021/01/27 12:30:12;;;;;;;5.30;3.53;;;3.00;1.00;;;;;;5069906;28;20598;-74
2021/01/27 12:32:41;;;;;;;2.30;2.10;;;3.00;1.00;;;;;;5055931;28;20639;-74
2021/01/27 12:35:13;;;;;;;4.97;3.40;;;3.10;1.00;;;;;;5052484;28;20182;-74
2021/01/27 12:37:39;;;;;;;4.20;2.78;;;3.20;1.00;;;;;;5069166;28;20538;-74
2021/01/27 12:40:07;;;;;;;4.93;3.28;;;3.20;1.00;;;;;;5053372;28;20191;-74
2021/01/27 12:42:33;;;;;;;5.35;4.03;;;3.20;1.00;;;;;;5054070;28;20677;-75
2021/01/27 12:44:59;;;;;;;3.93;3.10;;;3.30;1.00;;;;;;5053481;28;20171;-75
2021/01/27 12:47:30;;;;;;;5.38;3.13;;;3.40;1.00;;;;;;5053327;28;20394;-75
2021/01/27 12:50:01;;;;;;;5.60;4.18;;;3.30;1.00;;;;;;5052082;28;20634;-75
2021/01/27 12:52:48;;;;;;;3.22;2.95;;;3.40;1.00;;;;;;5068791;28;20262;-76
2021/01/27 12:55:20;;;;;;;4.97;3.17;;;3.30;1.00;;;;;;5053453;28;20187;-75
2021/01/27 12:57:48;;;;;;;6.28;3.40;;;3.30;1.00;;;;;;5053615;28;20199;-74
2021/01/27 13:00:19;;;;;;;7.95;3.90;;;3.30;1.00;;;;;;5056699;28;20688;-74
2021/01/27 13:02:46;;;;;;;4.10;3.00;;;;;;;;;;5070404;28;20223;-74
2021/01/27 13:05:13;;;;;;;4.68;3.55;;;3.30;1.00;;;;;;5051475;28;20622;-74
2021/01/27 13:07:38;;;;;;;7.32;3.90;;;;;;;;;;5052608;28;20242;-74
2021/01/27 13:10:08;;;;;;;6.07;3.70;;;3.20;1.00;;;;;;5052628;28;20246;-74
2021/01/27 13:12:35;;;;;;;5.68;3.25;;;3.20;1.00;;;;;;5052876;28;20493;-75
2021/01/27 13:15:08;;;;;;;6.18;4.05;;;3.20;1.00;;;;;;5052574;28;20155;-75
2021/01/27 13:17:35;;;;;;;5.13;3.55;;;3.20;1.00;;;;;;5051289;28;20718;-75
2021/01/27 13:20:09;;;;;;;5.10;3.78;;;3.30;1.00;;;;;;5077161;28;20228;-75
2021/01/27 13:22:35;;;;;;;10.18;3.58;;;3.30;1.00;;;;;;5071098;28;20187;-75
2021/01/27 13:25:02;;;;;;;4.43;2.80;;;;;;;;;;5072503;28;20286;-75
2021/01/27 13:27:28;;;;;;;5.30;3.80;;;;;;;;;;5063584;28;20175;-74
2021/01/27 13:29:54;;;;;;;6.83;3.80;;;;;;;;;;5060279;28;20209;-74
2021/01/27 13:32:20;;;;;;;8.13;4.10;;;;;;;;;;5070812;28;20445;-74
2021/01/27 13:34:46;;;;;;;5.95;3.78;;;;;;;;;;5072191;28;20412;-74
2021/01/27 13:37:15;;;;;;;7.60;3.97;;;;;;;;;;5070801;28;20168;-74
2021/01/27 13:39:42;;;;;;;4.88;3.08;;;3.20;1.00;;;;;;5061104;28;20450;-75
2021/01/27 13:42:08;;;;;;;5.43;3.75;;;3.40;1.00;;;;;;5068103;28;20560;-75
2021/01/27 13:44:37;;;;;;;6.93;3.85;;;3.70;1.00;;;;;;5084794;28;20639;-75
2021/01/27 13:47:19;;;;;;;5.43;3.80;;;3.60;1.00;;;;;;5063919;28;20182;-75
2021/01/27 13:49:44;;;;;;;6.20;3.80;;;3.50;1.00;;;;;;5059453;28;20175;-74
2021/01/27 13:52:10;;;;;;;4.70;3.37;;;3.50;1.00;;;;;;5072248;28;20211;-75
2021/01/27 13:54:42;;;;;;;6.17;4.03;;;3.60;1.00;;;;;;5052618;28;20481;-76
2021/01/27 13:57:12;;;;;;;4.75;3.38;;;3.70;1.00;;;;;;5052843;28;20391;-76
2021/01/27 13:59:38;;;;;;;11.63;2.97;;;3.70;1.00;;;;;;5052635;28;20207;-75